createdAt,value
2018-04-09T00:00:56.991Z,1024.48
2018-04-09T00:01:56.969Z,1024.5
2018-04-09T00:02:56.960Z,1024.54
2018-04-09T00:03:56.951Z,1024.53
2018-04-09T00:04:56.941Z,1024.54
2018-04-09T00:05:56.932Z,1024.58
2018-04-09T00:06:56.923Z,1024.64
2018-04-09T00:07:56.913Z,1024.61
2018-04-09T00:08:56.904Z,1024.58
2018-04-09T00:09:56.895Z,1024.52
2018-04-09T00:10:56.886Z,1024.51
2018-04-09T00:11:56.926Z,1024.51
2018-04-09T00:12:56.867Z,1024.52
2018-04-09T00:13:56.859Z,1024.5
2018-04-09T00:14:56.849Z,1024.49
2018-04-09T00:15:56.838Z,1024.5
2018-04-09T00:16:56.830Z,1024.5
2018-04-09T00:17:56.821Z,1024.55
2018-04-09T00:18:56.811Z,1024.58
2018-04-09T00:19:56.802Z,1024.6
2018-04-09T00:20:56.792Z,1024.65
2018-04-09T00:21:56.783Z,1024.7
2018-04-09T00:22:56.772Z,1024.72
2018-04-09T00:23:56.768Z,1024.75
2018-04-09T00:24:56.756Z,1024.7
2018-04-09T00:25:56.745Z,1024.7
2018-04-09T00:26:56.734Z,1024.7
2018-04-09T00:27:56.726Z,1024.68
2018-04-09T00:28:56.717Z,1024.69
2018-04-09T00:29:56.707Z,1024.72
2018-04-09T00:30:56.722Z,1024.7
2018-04-09T00:31:56.688Z,1024.73
2018-04-09T00:32:56.679Z,1024.74
2018-04-09T00:33:56.669Z,1024.74
2018-04-09T00:34:56.660Z,1024.78
2018-04-09T00:35:56.650Z,1024.72
2018-04-09T00:36:56.641Z,1024.72
2018-04-09T00:37:56.630Z,1024.72
2018-04-09T00:38:56.622Z,1024.72
2018-04-09T00:39:56.616Z,1024.67
2018-04-09T00:40:56.602Z,1024.66
2018-04-09T00:41:56.594Z,1024.64
2018-04-09T00:42:56.583Z,1024.61
2018-04-09T00:43:56.574Z,1024.59
2018-04-09T00:44:56.564Z,1024.52
2018-04-09T00:45:56.555Z,1024.54
2018-04-09T00:46:56.545Z,1024.52
2018-04-09T00:47:56.536Z,1024.49
2018-04-09T00:48:56.526Z,1024.49
2018-04-09T00:49:56.517Z,1024.53
2018-04-09T00:50:56.512Z,1024.5
2018-04-09T00:51:56.498Z,1024.5
2018-04-09T00:52:56.488Z,1024.52
2018-04-09T00:53:56.479Z,1024.52
2018-04-09T00:54:56.470Z,1024.55
2018-04-09T00:55:56.460Z,1024.53
2018-04-09T00:56:56.450Z,1024.53
2018-04-09T00:57:56.441Z,1024.52
2018-04-09T00:58:56.430Z,1024.49
2018-04-09T00:59:56.421Z,1024.47
2018-04-09T01:00:56.411Z,1024.46
2018-04-09T01:01:56.402Z,1024.45
2018-04-09T01:02:56.392Z,1024.42
2018-04-09T01:03:56.383Z,1024.45
2018-04-09T01:04:56.372Z,1024.4
2018-04-09T01:05:56.364Z,1024.45
2018-04-09T01:06:56.357Z,1024.43
2018-04-09T01:07:56.351Z,1024.44
2018-04-09T01:08:56.334Z,1024.47
2018-04-09T01:09:56.324Z,1024.47
2018-04-09T01:10:56.314Z,1024.53
2018-04-09T01:11:56.305Z,1024.52
2018-04-09T01:12:56.296Z,1024.49
2018-04-09T01:13:56.286Z,1024.53
2018-04-09T01:14:56.276Z,1024.55
2018-04-09T01:15:56.266Z,1024.55
2018-04-09T01:16:56.257Z,1024.54
2018-04-09T01:17:56.247Z,1024.59
2018-04-09T01:18:56.236Z,1024.59
2018-04-09T01:19:56.228Z,1024.62
2018-04-09T01:20:56.217Z,1024.62
2018-04-09T01:21:56.209Z,1024.62
2018-04-09T01:22:56.198Z,1024.62
2018-04-09T01:23:56.188Z,1024.55
2018-04-09T01:24:56.178Z,1024.59
2018-04-09T01:25:56.168Z,1024.57
2018-04-09T01:26:56.162Z,1024.52
2018-04-09T01:27:56.149Z,1024.48
2018-04-09T01:28:56.138Z,1024.48
2018-04-09T01:29:56.128Z,1024.46
2018-04-09T01:30:56.120Z,1024.42
2018-04-09T01:31:56.109Z,1024.5
2018-04-09T01:32:56.100Z,1024.48
2018-04-09T01:33:56.089Z,1024.5
2018-04-09T01:34:56.085Z,1024.52
2018-04-09T01:35:56.070Z,1024.54
2018-04-09T01:36:56.060Z,1024.57
2018-04-09T01:37:56.051Z,1024.57
2018-04-09T01:38:56.041Z,1024.55
2018-04-09T01:39:56.031Z,1024.61
2018-04-09T01:40:56.021Z,1024.58
2018-04-09T01:41:56.010Z,1024.57
2018-04-09T01:42:56.003Z,1024.58
2018-04-09T01:43:55.990Z,1024.61
2018-04-09T01:44:55.981Z,1024.64
2018-04-09T01:45:55.972Z,1024.64
2018-04-09T01:46:55.965Z,1024.66
2018-04-09T01:47:55.952Z,1024.66
2018-04-09T01:48:55.941Z,1024.63
2018-04-09T01:49:55.932Z,1024.64
2018-04-09T01:50:55.922Z,1024.62
2018-04-09T01:51:55.911Z,1024.63
2018-04-09T01:52:55.902Z,1024.6
2018-04-09T01:53:55.892Z,1024.6
2018-04-09T01:54:55.881Z,1024.59
2018-04-09T01:55:55.874Z,1024.58
2018-04-09T01:56:55.862Z,1024.59
2018-04-09T01:57:55.852Z,1024.61
2018-04-09T01:58:55.841Z,1024.57
2018-04-09T01:59:55.845Z,1024.57
2018-04-09T02:00:55.823Z,1024.56
2018-04-09T02:01:55.812Z,1024.56
2018-04-09T02:02:55.802Z,1024.54
2018-04-09T02:03:55.794Z,1024.55
2018-04-09T02:04:55.782Z,1024.53
2018-04-09T02:05:55.772Z,1024.51
2018-04-09T02:06:55.762Z,1024.55
2018-04-09T02:07:55.752Z,1024.5
2018-04-09T02:08:55.742Z,1024.45
2018-04-09T02:09:55.734Z,1024.5
2018-04-09T02:10:55.724Z,1024.47
2018-04-09T02:11:55.712Z,1024.47
2018-04-09T02:12:55.702Z,1024.41
2018-04-09T02:13:55.691Z,1024.45
2018-04-09T02:14:55.685Z,1024.45
2018-04-09T02:15:55.672Z,1024.43
2018-04-09T02:16:55.661Z,1024.48
2018-04-09T02:17:55.654Z,1024.44
2018-04-09T02:18:55.642Z,1024.42
2018-04-09T02:19:55.630Z,1024.4
2018-04-09T02:20:55.625Z,1024.44
2018-04-09T02:21:55.613Z,1024.42
2018-04-09T02:22:55.602Z,1024.43
2018-04-09T02:23:55.592Z,1024.43
2018-04-09T02:24:55.581Z,1024.43
2018-04-09T02:25:55.572Z,1024.43
2018-04-09T02:26:55.561Z,1024.48
2018-04-09T02:27:55.551Z,1024.48
2018-04-09T02:28:55.545Z,1024.47
2018-04-09T02:29:55.531Z,1024.45
2018-04-09T02:30:55.522Z,1024.46
2018-04-09T02:31:55.512Z,1024.42
2018-04-09T02:32:55.503Z,1024.47
2018-04-09T02:33:55.493Z,1024.48
2018-04-09T02:34:55.482Z,1024.41
2018-04-09T02:35:55.470Z,1024.44
2018-04-09T02:36:55.461Z,1024.37
2018-04-09T02:37:55.449Z,1024.36
2018-04-09T02:38:55.440Z,1024.38
2018-04-09T02:39:55.430Z,1024.39
2018-04-09T02:40:55.420Z,1024.41
2018-04-09T02:41:55.410Z,1024.5
2018-04-09T02:42:55.398Z,1024.52
2018-04-09T02:43:55.390Z,1024.48
2018-04-09T02:44:55.379Z,1024.47
2018-04-09T02:45:55.372Z,1024.52
2018-04-09T02:46:55.362Z,1024.5
2018-04-09T02:47:55.358Z,1024.46
2018-04-09T02:48:55.339Z,1024.46
2018-04-09T02:49:55.328Z,1024.48
2018-04-09T02:50:55.319Z,1024.49
2018-04-09T02:57:55.248Z,1024.46
2018-04-09T02:58:55.236Z,1024.45
2018-04-09T02:59:55.226Z,1024.4
2018-04-09T03:00:55.215Z,1024.39
2018-04-09T03:02:55.196Z,1024.37
2018-04-09T03:03:55.201Z,1024.36
2018-04-09T03:04:55.173Z,1024.32
2018-04-09T03:05:55.167Z,1024.33
2018-04-09T03:06:55.157Z,1024.31
2018-04-09T03:07:55.142Z,1024.33
2018-04-09T03:08:55.131Z,1024.3
2018-04-09T03:09:55.122Z,1024.29
2018-04-09T03:28:54.925Z,1024.47
2018-04-09T03:29:54.915Z,1024.47
2018-04-09T03:30:54.905Z,1024.49
2018-04-09T03:31:54.894Z,1024.5
2018-04-09T03:32:54.882Z,1024.48
2018-04-09T03:33:54.889Z,1024.49
2018-04-09T03:34:54.863Z,1024.47
2018-04-09T03:35:54.852Z,1024.52
2018-04-09T03:36:54.842Z,1024.52
2018-04-09T03:37:54.830Z,1024.52
2018-04-09T03:38:54.821Z,1024.5
2018-04-09T03:39:54.809Z,1024.48
2018-04-09T03:40:54.800Z,1024.45
2018-04-09T03:41:54.788Z,1024.43
2018-04-09T03:42:54.778Z,1024.48
2018-04-09T03:43:54.768Z,1024.49
2018-04-09T03:44:54.757Z,1024.52
2018-04-09T03:45:54.747Z,1024.51
2018-04-09T03:46:54.737Z,1024.51
2018-04-09T03:47:54.727Z,1024.5
2018-04-09T03:48:54.715Z,1024.51
2018-04-09T03:49:54.706Z,1024.47
2018-04-09T03:50:54.696Z,1024.47
2018-04-09T03:51:54.683Z,1024.47
2018-04-09T03:52:54.672Z,1024.44
2018-04-09T03:53:54.662Z,1024.44
2018-04-09T03:54:54.654Z,1024.44
2018-04-09T03:55:54.640Z,1024.41
2018-04-09T03:56:54.630Z,1024.4
2018-04-09T03:57:54.619Z,1024.44
2018-04-09T03:58:54.609Z,1024.42
2018-04-09T03:59:54.599Z,1024.47
2018-04-09T04:00:54.588Z,1024.49
2018-04-09T04:01:54.577Z,1024.49
2018-04-09T04:02:54.572Z,1024.47
2018-04-09T04:03:54.556Z,1024.49
2018-04-09T04:04:54.546Z,1024.5
2018-04-09T04:05:54.534Z,1024.49
2018-04-09T04:06:54.524Z,1024.48
2018-04-09T04:07:54.514Z,1024.47
2018-04-09T04:08:54.502Z,1024.5
2018-04-09T04:09:54.492Z,1024.47
2018-04-09T04:10:54.481Z,1024.5
2018-04-09T04:11:54.471Z,1024.49
2018-04-09T04:12:54.459Z,1024.48
2018-04-09T04:13:54.450Z,1024.46
2018-04-09T04:14:54.439Z,1024.48
2018-04-09T04:15:54.429Z,1024.46
2018-04-09T04:16:54.417Z,1024.44
2018-04-09T04:17:54.407Z,1024.46
2018-04-09T04:18:54.396Z,1024.45
2018-04-09T04:19:54.385Z,1024.42
2018-04-09T04:20:54.374Z,1024.42
2018-04-09T04:21:54.364Z,1024.43
2018-04-09T04:22:54.354Z,1024.42
2018-04-09T04:23:54.342Z,1024.44
2018-04-09T04:24:54.332Z,1024.41
2018-04-09T04:25:54.321Z,1024.4
2018-04-09T04:26:54.310Z,1024.32
2018-04-09T04:27:54.300Z,1024.33
2018-04-09T04:28:54.289Z,1024.3
2018-04-09T04:29:54.280Z,1024.27
2018-04-09T04:30:54.267Z,1024.28
2018-04-09T04:31:54.257Z,1024.25
2018-04-09T04:32:54.246Z,1024.21
2018-04-09T04:33:54.236Z,1024.22
2018-04-09T04:40:54.163Z,1024.2
2018-04-09T04:41:54.152Z,1024.18
2018-04-09T04:42:54.142Z,1024.19
2018-04-09T04:43:54.131Z,1024.12
2018-04-09T04:44:54.122Z,1024.06
2018-04-09T04:45:54.110Z,1023.97
2018-04-09T04:46:54.100Z,1023.86
2018-04-09T04:47:54.090Z,1023.77
2018-04-09T04:48:54.080Z,1023.65
2018-04-09T04:49:54.069Z,1023.62
2018-04-09T04:50:54.059Z,1023.54
2018-04-09T04:51:54.050Z,1023.5
2018-04-09T04:52:54.039Z,1023.48
2018-04-09T04:53:54.029Z,1023.43
2018-04-09T04:54:54.019Z,1023.33
2018-04-09T04:55:54.010Z,1023.22
2018-04-09T04:56:53.998Z,1023.11
2018-04-09T04:57:53.990Z,1022.96
2018-04-09T04:58:53.980Z,1022.81
2018-04-09T04:59:53.971Z,1022.73
2018-04-09T05:00:53.961Z,1022.6
2018-04-09T05:01:53.952Z,1022.49
2018-04-09T05:02:53.942Z,1022.37
2018-04-09T05:03:53.933Z,1022.28
2018-04-09T05:04:53.925Z,1022.18
2018-04-09T05:05:53.915Z,1022.13
2018-04-09T05:06:53.907Z,1022.07
2018-04-09T05:07:53.898Z,1021.97
2018-04-09T05:12:53.862Z,1021.44
2018-04-09T05:13:53.850Z,1021.36
2018-04-09T05:14:53.842Z,1021.29
2018-04-09T05:15:53.835Z,1021.2
2018-04-09T05:16:53.828Z,1021.09
2018-04-09T05:26:53.764Z,1020.16
2018-04-09T05:27:53.761Z,1020.01
2018-04-09T05:28:53.751Z,1019.94
2018-04-09T05:29:53.745Z,1019.89
2018-04-09T05:30:53.740Z,1019.75
2018-04-09T05:31:53.735Z,1019.68
2018-04-09T05:32:53.731Z,1019.59
2018-04-09T05:33:53.725Z,1019.52
2018-04-09T05:34:53.721Z,1019.42
2018-04-09T05:35:53.716Z,1019.37
2018-04-09T05:36:53.712Z,1019.25
2018-04-09T05:37:53.708Z,1019.18
2018-04-09T05:38:53.755Z,1019.03
2018-04-09T05:39:53.700Z,1018.93
2018-04-09T05:40:53.695Z,1018.81
2018-04-09T05:41:53.692Z,1018.77
2018-04-09T05:42:53.688Z,1018.66
2018-04-09T05:43:53.684Z,1018.59
2018-04-09T05:44:53.683Z,1018.55
2018-04-09T05:45:53.679Z,1018.43
2018-04-09T05:46:53.679Z,1018.38
2018-04-09T05:47:53.672Z,1018.31
2018-04-09T05:48:53.673Z,1018.25
2018-04-09T05:49:53.670Z,1018.2
2018-04-09T05:50:53.665Z,1018.14
2018-04-09T05:51:53.667Z,1018.02
2018-04-09T05:52:53.661Z,1017.96
2018-04-09T05:53:53.658Z,1017.91
2018-04-09T05:54:53.655Z,1017.76
2018-04-09T05:55:53.655Z,1017.66
2018-04-09T05:56:53.652Z,1017.58
2018-04-09T05:57:53.653Z,1017.5
2018-04-09T05:58:53.649Z,1017.37
2018-04-09T05:59:53.651Z,1017.34
2018-04-09T06:00:53.648Z,1017.2
2018-04-09T06:01:53.647Z,1017.16
2018-04-09T06:02:53.647Z,1017.12
2018-04-09T06:03:53.651Z,1017.09
2018-04-09T06:04:53.645Z,1017.05
2018-04-09T06:05:53.644Z,1016.96
2018-04-09T06:06:53.648Z,1016.88
2018-04-09T06:07:53.644Z,1016.8
2018-04-09T06:08:53.645Z,1016.69
2018-04-09T06:09:53.648Z,1016.57
2018-04-09T06:10:53.654Z,1016.49
2018-04-09T06:11:53.645Z,1016.33
2018-04-09T06:12:53.657Z,1016.23
2018-04-09T06:13:53.647Z,1016.08
2018-04-09T06:14:53.648Z,1015.99
2018-04-09T06:15:53.650Z,1015.93
2018-04-09T06:16:53.651Z,1015.86
2018-04-09T06:17:53.652Z,1015.76
2018-04-09T06:18:53.654Z,1015.66
2018-04-09T06:19:53.657Z,1015.6
2018-04-09T06:20:53.659Z,1015.5
2018-04-09T06:21:53.661Z,1015.45
2018-04-09T06:22:53.664Z,1015.39
2018-04-09T06:23:53.667Z,1015.36
2018-04-09T06:24:53.676Z,1015.3
2018-04-09T06:25:53.673Z,1015.24
2018-04-09T06:26:53.678Z,1015.19
2018-04-09T06:27:53.679Z,1015.15
2018-04-09T06:28:53.682Z,1015.04
2018-04-09T06:29:53.687Z,1015.01
2018-04-09T06:30:53.701Z,1014.95
2018-04-09T06:31:53.764Z,1014.86
2018-04-09T06:32:53.702Z,1014.84
2018-04-09T06:33:53.702Z,1014.8
2018-04-09T06:34:53.709Z,1014.73
2018-04-09T06:35:53.711Z,1014.75
2018-04-09T06:36:53.716Z,1014.63
2018-04-09T06:37:53.722Z,1014.56
2018-04-09T06:38:53.728Z,1014.53
2018-04-09T06:39:53.731Z,1014.47
2018-04-09T06:40:53.736Z,1014.43
2018-04-09T06:41:53.743Z,1014.46
2018-04-09T06:42:53.748Z,1014.44
2018-04-09T06:43:53.753Z,1014.43
2018-04-09T06:44:53.759Z,1014.38
2018-04-09T06:45:53.765Z,1014.34
2018-04-09T06:46:53.787Z,1014.28
2018-04-09T06:47:53.780Z,1014.25
2018-04-09T06:48:53.783Z,1014.2
2018-04-09T06:49:53.804Z,1014.15
2018-04-09T06:50:53.796Z,1014.09
2018-04-09T06:51:53.803Z,1014.05
2018-04-09T06:52:53.809Z,1013.98
2018-04-09T06:53:53.815Z,1013.97
2018-04-09T06:54:53.822Z,1013.9
2018-04-09T06:55:53.830Z,1013.92
2018-04-09T06:56:53.838Z,1013.94
2018-04-09T06:57:53.864Z,1013.95
2018-04-09T06:58:53.850Z,1013.91
2018-04-09T06:59:53.862Z,1013.86
2018-04-09T07:00:54.876Z,1013.75
2018-04-09T07:01:55.689Z,1013.68
2018-04-09T07:02:53.884Z,1013.66
2018-04-09T07:03:53.888Z,1013.7
2018-04-09T07:04:53.900Z,1013.68
2018-04-09T07:05:53.920Z,1013.73
2018-04-09T07:06:53.912Z,1013.77
2018-04-09T07:07:53.921Z,1013.81
2018-04-09T07:08:53.948Z,1013.78
2018-04-09T07:09:53.939Z,1013.74
2018-04-09T07:10:53.946Z,1013.7
2018-04-09T07:11:53.956Z,1013.67
2018-04-09T07:12:53.963Z,1013.67
2018-04-09T07:13:53.971Z,1013.58
2018-04-09T07:14:53.982Z,1013.62
2018-04-09T07:15:54.106Z,1013.57
2018-04-09T07:16:54.007Z,1013.43
2018-04-09T07:17:54.008Z,1013.34
2018-04-09T07:18:54.021Z,1013.22
2018-04-09T07:19:54.025Z,1013.11
2018-04-09T07:20:54.034Z,1013
2018-04-09T07:21:54.044Z,1012.93
2018-04-09T07:22:54.052Z,1012.92
2018-04-09T07:23:54.072Z,1012.84
2018-04-09T07:24:54.088Z,1012.76
2018-04-09T07:25:54.083Z,1012.69
2018-04-09T07:26:54.093Z,1012.64
2018-04-09T07:27:54.103Z,1012.58
2018-04-09T07:28:54.111Z,1012.52
2018-04-09T07:29:54.130Z,1012.49
2018-04-09T07:30:54.131Z,1012.4
2018-04-09T07:31:54.150Z,1012.34
2018-04-09T07:32:54.153Z,1012.28
2018-04-09T07:33:54.162Z,1012.29
2018-04-09T07:34:54.175Z,1012.28
2018-04-09T07:35:54.185Z,1012.19
2018-04-09T07:36:54.196Z,1012.13
2018-04-09T07:37:54.206Z,1012.13
2018-04-09T07:38:54.225Z,1012.04
2018-04-09T07:39:54.238Z,1011.92
2018-04-09T07:40:54.254Z,1011.77
2018-04-09T07:41:54.467Z,1011.66
2018-04-09T07:42:54.264Z,1011.57
2018-04-09T07:43:54.281Z,1011.49
2018-04-09T07:44:54.292Z,1011.37
2018-04-09T07:45:54.299Z,1011.29
2018-04-09T07:46:54.313Z,1011.24
2018-04-09T07:47:54.323Z,1011.17
2018-04-09T07:48:54.335Z,1011.18
2018-04-09T07:49:54.362Z,1011.18
2018-04-09T07:50:54.362Z,1011.17
2018-04-09T07:51:54.374Z,1011.18
2018-04-09T07:52:54.387Z,1011.19
2018-04-09T07:53:54.399Z,1011.21
2018-04-09T07:54:54.417Z,1011.35
2018-04-09T07:55:54.423Z,1011.55
2018-04-09T07:56:54.436Z,1011.76
2018-04-09T07:58:54.462Z,1012.11
2018-04-09T07:59:54.473Z,1012.26
2018-04-09T08:00:54.485Z,1012.41
2018-04-09T08:01:54.499Z,1012.52
2018-04-09T08:02:54.509Z,1012.66
2018-04-09T08:03:54.522Z,1012.77
2018-04-09T08:04:54.539Z,1012.84
2018-04-09T08:05:54.549Z,1012.85
2018-04-09T08:06:54.558Z,1012.94
2018-04-09T08:07:54.573Z,1012.99
2018-04-09T08:08:54.593Z,1013.02
2018-04-09T08:09:54.599Z,1013.06
2018-04-09T08:10:54.605Z,1013.05
2018-04-09T08:11:54.617Z,1013.11
2018-04-09T08:12:54.627Z,1013.1
2018-04-09T08:13:54.636Z,1013.17
2018-04-09T08:14:54.652Z,1013.18
2018-04-09T08:15:54.671Z,1013.22
2018-04-09T08:16:54.672Z,1013.25
2018-04-09T08:17:54.682Z,1013.33
2018-04-09T08:18:54.692Z,1013.44
2018-04-09T08:19:54.703Z,1013.59
2018-04-09T08:20:54.714Z,1013.87
2018-04-09T08:21:54.724Z,1014.26
2018-04-09T08:22:54.734Z,1014.85
2018-04-09T08:23:54.750Z,1015.31
2018-04-09T08:24:54.760Z,1015.68
2018-04-09T08:25:54.770Z,1016
2018-04-09T08:26:54.774Z,1016.29
2018-04-09T08:27:54.785Z,1016.57
2018-04-09T08:28:54.791Z,1016.84
2018-04-09T08:29:54.800Z,1017.07
2018-04-09T08:30:55.012Z,1017.32
2018-04-09T08:31:54.818Z,1017.49
2018-04-09T08:32:54.823Z,1017.69
2018-04-09T08:33:54.830Z,1017.88
2018-04-09T08:34:54.838Z,1017.99
2018-04-09T08:35:54.844Z,1018.09
2018-04-09T08:36:54.850Z,1018.22
2018-04-09T08:37:54.856Z,1018.29
2018-04-09T08:38:54.862Z,1018.39
2018-04-09T08:39:54.866Z,1018.5
2018-04-09T08:40:54.880Z,1018.56
2018-04-09T08:41:54.893Z,1018.62
2018-04-09T08:42:54.881Z,1018.67
2018-04-09T08:43:54.886Z,1018.78
2018-04-09T08:44:54.889Z,1018.78
2018-04-09T08:45:54.893Z,1018.84
2018-04-09T08:46:54.895Z,1018.86
2018-04-09T08:47:54.909Z,1018.93
2018-04-09T08:48:54.912Z,1018.94
2018-04-09T08:49:54.906Z,1018.96
2018-04-09T08:50:54.908Z,1019.02
2018-04-09T08:51:54.912Z,1019.11
2018-04-09T08:52:54.913Z,1019.11
2018-04-09T08:53:54.914Z,1019.13
2018-04-09T08:54:54.918Z,1019.25
2018-04-09T08:55:54.920Z,1019.3
2018-04-09T08:56:54.921Z,1019.29
2018-04-09T08:57:54.922Z,1019.33
2018-04-09T08:58:54.923Z,1019.35
2018-04-09T08:59:54.926Z,1019.36
2018-04-09T09:00:54.935Z,1019.44
2018-04-09T09:01:54.928Z,1019.42
2018-04-09T09:02:54.928Z,1019.49
2018-04-09T09:03:54.941Z,1019.5
2018-04-09T09:04:54.931Z,1019.49
2018-04-09T09:05:54.931Z,1019.51
2018-04-09T09:06:54.932Z,1019.57
2018-04-09T09:07:54.938Z,1019.63
2018-04-09T09:08:54.939Z,1019.66
2018-04-09T09:09:54.933Z,1019.67
2018-04-09T09:10:54.937Z,1019.67
2018-04-09T09:11:54.939Z,1019.66
2018-04-09T09:12:54.934Z,1019.64
2018-04-09T09:13:54.950Z,1019.65
2018-04-09T09:14:54.937Z,1019.64
2018-04-09T09:15:54.936Z,1019.64
2018-04-09T09:16:54.937Z,1019.61
2018-04-09T09:17:54.936Z,1019.59
2018-04-09T09:18:54.938Z,1019.61
2018-04-09T09:19:54.936Z,1019.62
2018-04-09T09:20:54.937Z,1019.62
2018-04-09T09:21:54.938Z,1019.66
2018-04-09T09:22:54.937Z,1019.63
2018-04-09T09:23:54.936Z,1019.64
2018-04-09T09:24:54.941Z,1019.64
2018-04-09T09:25:54.936Z,1019.66
2018-04-09T09:26:54.935Z,1019.6
2018-04-09T09:27:54.935Z,1019.59
2018-04-09T09:28:54.941Z,1019.56
2018-04-09T09:29:54.936Z,1019.52
2018-04-09T09:30:54.937Z,1019.56
2018-04-09T09:31:54.934Z,1019.52
2018-04-09T09:32:54.934Z,1019.54
2018-04-09T09:33:54.935Z,1019.54
2018-04-09T09:34:54.937Z,1019.6
2018-04-09T09:35:54.933Z,1019.62
2018-04-09T09:36:54.933Z,1019.66
2018-04-09T09:37:54.932Z,1019.7
2018-04-09T09:38:54.933Z,1019.69
2018-04-09T09:39:54.941Z,1019.68
2018-04-09T09:40:54.932Z,1019.64
2018-04-09T09:41:54.931Z,1019.62
2018-04-09T09:42:54.931Z,1019.61
2018-04-09T09:43:54.933Z,1019.6
2018-04-09T09:44:54.937Z,1019.57
2018-04-09T09:45:54.928Z,1019.6
2018-04-09T09:46:54.928Z,1019.64
2018-04-09T09:47:54.946Z,1019.63
2018-04-09T09:48:54.927Z,1019.64
2018-04-09T09:49:54.926Z,1019.66
2018-04-09T09:50:54.948Z,1019.67
2018-04-09T09:51:54.925Z,1019.65
2018-04-09T09:52:54.923Z,1019.64
2018-04-09T09:53:54.928Z,1019.65
2018-04-09T09:54:54.926Z,1019.65
2018-04-09T09:55:54.922Z,1019.55
2018-04-09T09:56:54.925Z,1019.53
2018-04-09T09:57:54.920Z,1019.53
2018-04-09T09:58:55.122Z,1019.5
2018-04-09T09:59:54.918Z,1019.5
2018-04-09T10:00:54.918Z,1019.48
2018-04-09T10:01:54.916Z,1019.47
2018-04-09T10:02:54.922Z,1019.5
2018-04-09T10:03:54.915Z,1019.48
2018-04-09T10:04:54.933Z,1019.47
2018-04-09T10:05:54.918Z,1019.46
2018-04-09T10:06:54.913Z,1019.45
2018-04-09T10:07:54.911Z,1019.48
2018-04-09T10:08:54.919Z,1019.49
2018-04-09T10:09:54.910Z,1019.47
2018-04-09T10:10:54.915Z,1019.45
2018-04-09T10:11:54.908Z,1019.41
2018-04-09T10:12:54.916Z,1019.39
2018-04-09T10:13:54.906Z,1019.4
2018-04-09T10:14:54.905Z,1019.39
2018-04-09T10:15:54.904Z,1019.39
2018-04-09T10:16:54.904Z,1019.38
2018-04-09T10:17:54.903Z,1019.32
2018-04-09T10:18:54.902Z,1019.35
2018-04-09T10:19:54.902Z,1019.33
2018-04-09T10:20:54.900Z,1019.27
2018-04-09T10:21:54.899Z,1019.29
2018-04-09T10:22:54.898Z,1019.23
2018-04-09T10:23:54.898Z,1019.27
2018-04-09T10:24:54.900Z,1019.29
2018-04-09T10:25:54.896Z,1019.24
2018-04-09T10:26:54.895Z,1019.19
2018-04-09T10:27:54.911Z,1019.15
2018-04-09T10:28:54.910Z,1019.13
2018-04-09T10:29:54.891Z,1019.08
2018-04-09T10:30:54.892Z,1019.11
2018-04-09T10:31:54.891Z,1019.12
2018-04-09T10:32:54.890Z,1019.17
2018-04-09T10:33:54.891Z,1019.19
2018-04-09T10:34:54.890Z,1019.19
2018-04-09T10:35:54.903Z,1019.21
2018-04-09T10:36:54.887Z,1019.15
2018-04-09T10:37:54.885Z,1019.13
2018-04-09T10:38:54.900Z,1019.09
2018-04-09T10:39:54.883Z,1019.06
2018-04-09T10:40:54.882Z,1019.09
2018-04-09T10:41:54.882Z,1019.06
2018-04-09T10:42:54.884Z,1019.04
2018-04-09T10:43:54.881Z,1019.01
2018-04-09T10:44:54.879Z,1019.02
2018-04-09T10:45:54.879Z,1019.04
2018-04-09T10:46:54.880Z,1019.08
2018-04-09T10:47:54.879Z,1019
2018-04-09T10:48:54.880Z,1018.97
2018-04-09T10:49:54.876Z,1018.96
2018-04-09T10:50:54.884Z,1018.92
2018-04-09T10:51:54.873Z,1018.87
2018-04-09T10:52:54.878Z,1018.88
2018-04-09T10:53:54.873Z,1018.85
2018-04-09T10:54:54.874Z,1018.83
2018-04-09T10:55:54.872Z,1018.76
2018-04-09T10:56:54.869Z,1018.76
2018-04-09T10:57:54.869Z,1018.79
2018-04-09T10:58:54.867Z,1018.78
2018-04-09T10:59:54.867Z,1018.75
2018-04-09T11:00:54.870Z,1018.72
2018-04-09T11:01:54.865Z,1018.71
2018-04-09T11:02:54.882Z,1018.64
2018-04-09T11:03:54.878Z,1018.66
2018-04-09T11:04:54.864Z,1018.63
2018-04-09T11:05:54.868Z,1018.63
2018-04-09T11:06:54.863Z,1018.61
2018-04-09T11:07:54.862Z,1018.64
2018-04-09T11:08:54.861Z,1018.61
2018-04-09T11:09:54.860Z,1018.57
2018-04-09T11:10:54.859Z,1018.56
2018-04-09T11:11:54.858Z,1018.51
2018-04-09T11:12:54.857Z,1018.47
2018-04-09T11:13:54.857Z,1018.53
2018-04-09T11:14:54.856Z,1018.47
2018-04-09T11:15:54.856Z,1018.49
2018-04-09T11:16:54.855Z,1018.48
2018-04-09T11:17:54.854Z,1018.43
2018-04-09T11:18:54.855Z,1018.48
2018-04-09T11:19:54.854Z,1018.52
2018-04-09T11:20:54.851Z,1018.53
2018-04-09T11:21:54.851Z,1018.52
2018-04-09T11:22:54.851Z,1018.5
2018-04-09T11:23:54.854Z,1018.47
2018-04-09T11:24:54.850Z,1018.5
2018-04-09T11:25:54.852Z,1018.49
2018-04-09T11:26:54.848Z,1018.44
2018-04-09T11:27:54.848Z,1018.47
2018-04-09T11:28:54.847Z,1018.42
2018-04-09T11:29:54.847Z,1018.37
2018-04-09T11:30:54.852Z,1018.36
2018-04-09T11:31:54.847Z,1018.38
2018-04-09T11:32:54.846Z,1018.39
2018-04-09T11:33:54.853Z,1018.38
2018-04-09T11:34:54.843Z,1018.32
2018-04-09T11:35:54.844Z,1018.35
2018-04-09T11:36:54.849Z,1018.32
2018-04-09T11:37:54.848Z,1018.35
2018-04-09T11:38:54.847Z,1018.31
2018-04-09T11:39:54.847Z,1018.29
2018-04-09T11:40:54.847Z,1018.32
2018-04-09T11:41:54.866Z,1018.24
2018-04-09T11:42:54.870Z,1018.25
2018-04-09T11:43:54.845Z,1018.23
2018-04-09T11:44:54.863Z,1018.27
2018-04-09T11:45:54.859Z,1018.31
2018-04-09T11:46:54.871Z,1018.31
2018-04-09T11:47:54.878Z,1018.3
2018-04-09T11:48:54.846Z,1018.3
2018-04-09T11:49:54.843Z,1018.35
2018-04-09T11:50:54.842Z,1018.36
2018-04-09T11:51:54.841Z,1018.37
2018-04-09T11:52:54.849Z,1018.36
2018-04-09T11:53:54.839Z,1018.31
2018-04-09T11:54:54.840Z,1018.3
2018-04-09T11:55:54.838Z,1018.26
2018-04-09T11:56:54.838Z,1018.24
2018-04-09T11:58:54.843Z,1018.16
2018-04-09T11:59:54.837Z,1018.14
2018-04-09T12:00:54.837Z,1018.12
2018-04-09T12:01:54.841Z,1018.13
2018-04-09T12:02:54.841Z,1018.11
2018-04-09T12:03:54.843Z,1018.14
2018-04-09T12:04:54.850Z,1018.12
2018-04-09T12:05:54.832Z,1018.14
2018-04-09T12:06:54.832Z,1018.16
2018-04-09T12:07:54.831Z,1018.16
2018-04-09T12:08:54.831Z,1018.16
2018-04-09T12:09:54.831Z,1018.09
2018-04-09T12:10:54.851Z,1018.11
2018-04-09T12:11:54.829Z,1018.08
2018-04-09T12:12:54.829Z,1018.06
2018-04-09T12:13:54.832Z,1018.14
2018-04-09T12:14:54.845Z,1018.1
2018-04-09T12:15:54.834Z,1018.13
2018-04-09T12:16:54.837Z,1018.14
2018-04-09T12:17:54.828Z,1018.17
2018-04-09T12:18:54.831Z,1018.17
2018-04-09T12:19:54.833Z,1018.18
2018-04-09T12:20:54.832Z,1018.14
2018-04-09T12:21:54.841Z,1018.21
2018-04-09T12:22:54.830Z,1018.16
2018-04-09T12:24:54.826Z,1018.11
2018-04-09T12:25:54.825Z,1018.14
2018-04-09T12:26:54.828Z,1018.14
2018-04-09T12:27:54.825Z,1018.07
2018-04-09T12:28:54.830Z,1018.08
2018-04-09T12:29:54.831Z,1018.05
2018-04-09T12:30:54.824Z,1018.08
2018-04-09T12:31:54.827Z,1018
2018-04-09T12:32:54.824Z,1018.04
2018-04-09T12:33:54.824Z,1018.04
2018-04-09T12:34:54.832Z,1018.02
2018-04-09T12:35:54.823Z,1018.01
2018-04-09T12:36:54.836Z,1017.96
2018-04-09T12:37:54.831Z,1017.95
2018-04-09T12:38:54.825Z,1017.92
2018-04-09T12:39:54.825Z,1017.91
2018-04-09T12:40:54.823Z,1017.86
2018-04-09T12:41:54.820Z,1017.83
2018-04-09T12:42:54.819Z,1017.86
2018-04-09T12:43:54.820Z,1017.84
2018-04-09T12:44:54.819Z,1017.85
2018-04-09T12:45:54.819Z,1017.85
2018-04-09T12:46:54.825Z,1017.84
2018-04-09T12:47:54.821Z,1017.81
2018-04-09T12:48:54.818Z,1017.83
2018-04-09T12:49:54.818Z,1017.79
2018-04-09T12:50:54.818Z,1017.81
2018-04-09T12:51:54.817Z,1017.84
2018-04-09T12:52:54.829Z,1017.84
2018-04-09T12:53:54.820Z,1017.87
2018-04-09T12:54:54.819Z,1017.9
2018-04-09T12:55:54.816Z,1017.88